Time;durP1;ratioP1;P1;durP2;ratioP2;P2;SDS_P1;SDS_P2;PMS_P1;PMS_P2;Temp;Humidity;BMP_temperature;BMP_pressure;BME280_temperature;BME280_humidity;BME280_pressure;Samples;Min_cycle;Max_cycle;Signal;HPM_P1;HPM_P2
2024/01/04 00:00:25;;;;;;;3.15;0.68;;;7.20;99.90;;;;;;5028569;28;20681;-61
2024/01/04 00:02:51;;;;;;;5.80;0.88;;;7.20;99.90;;;;;;5055135;28;20041;-61
2024/01/04 00:05:17;;;;;;;4.30;0.98;;;7.20;99.90;;;;;;5029303;28;20191;-61
2024/01/04 00:07:43;;;;;;;2.30;0.68;;;7.20;99.90;;;;;;5041728;28;20044;-61
2024/01/04 00:10:09;;;;;;;3.92;0.63;;;7.20;99.90;;;;;;5041090;28;22162;-61
2024/01/04 00:12:35;;;;;;;2.40;0.50;;;7.20;99.90;;;;;;5046919;28;20521;-61
2024/01/04 00:15:03;;;;;;;3.22;0.45;;;7.10;99.90;;;;;;5037507;28;20084;-61
2024/01/04 00:17:32;;;;;;;5.47;0.60;;;7.10;99.90;;;;;;5054500;28;20041;-61
2024/01/04 00:19:58;;;;;;;2.67;0.43;;;7.10;99.90;;;;;;5026414;28;20056;-62
2024/01/04 00:22:24;;;;;;;5.32;0.90;;;7.10;99.90;;;;;;5044717;28;20368;-61
2024/01/04 00:24:49;;;;;;;5.38;0.68;;;7.10;99.90;;;;;;5040510;28;20041;-61
2024/01/04 00:27:15;;;;;;;5.95;0.50;;;7.10;99.90;;;;;;5035214;28;20044;-61
2024/01/04 00:29:44;;;;;;;2.13;0.65;;;7.10;99.90;;;;;;5024894;28;20048;-61
2024/01/04 00:32:10;;;;;;;5.72;0.70;;;7.10;99.90;;;;;;5037034;28;20037;-61
2024/01/04 00:34:36;;;;;;;6.88;0.80;;;7.10;99.90;;;;;;5053182;28;20048;-61
2024/01/04 00:37:03;;;;;;;4.65;0.77;;;7.10;99.90;;;;;;5041082;28;20053;-61
2024/01/04 00:39:29;;;;;;;3.33;0.70;;;7.10;99.90;;;;;;5007643;28;20041;-62
2024/01/04 00:41:56;;;;;;;6.07;0.75;;;7.10;99.90;;;;;;5050533;28;20275;-62
2024/01/04 00:44:22;;;;;;;3.33;0.63;;;7.10;99.90;;;;;;5039388;28;20513;-62
2024/01/04 00:46:47;;;;;;;1.67;0.50;;;7.10;99.90;;;;;;5042632;28;20131;-61
2024/01/04 00:49:13;;;;;;;5.40;0.77;;;7.00;99.90;;;;;;5054858;28;20180;-61
2024/01/04 00:51:39;;;;;;;4.60;0.73;;;7.00;99.90;;;;;;5016207;28;20071;-61
2024/01/04 00:54:06;;;;;;;4.32;0.77;;;7.00;99.90;;;;;;5046799;28;20037;-61
2024/01/04 00:56:33;;;;;;;5.28;0.80;;;7.00;99.90;;;;;;5028878;28;20032;-61
2024/01/04 00:59:02;;;;;;;2.70;0.70;;;6.90;99.90;;;;;;5040040;28;20718;-62
2024/01/04 01:01:30;;;;;;;7.93;1.08;;;6.80;99.90;;;;;;5045674;28;20048;-61
2024/01/04 01:03:57;;;;;;;3.72;0.77;;;6.90;99.90;;;;;;5048228;28;20063;-61
2024/01/04 01:06:23;;;;;;;7.53;1.05;;;6.90;99.90;;;;;;5036644;28;20053;-62
2024/01/04 01:08:49;;;;;;;3.92;0.82;;;6.80;99.90;;;;;;5055823;28;20068;-61
2024/01/04 01:11:15;;;;;;;3.67;1.38;;;6.90;99.90;;;;;;5054819;28;20044;-61
2024/01/04 01:13:40;;;;;;;5.60;1.35;;;6.80;99.90;;;;;;5049084;28;20053;-61
2024/01/04 01:16:08;;;;;;;2.10;0.65;;;6.80;99.90;;;;;;5061746;28;20612;-61
2024/01/04 01:18:34;;;;;;;5.15;0.75;;;6.80;99.90;;;;;;5044262;28;20578;-61
2024/01/04 01:21:00;;;;;;;2.40;0.40;;;6.90;99.90;;;;;;5042442;28;20174;-61
2024/01/04 01:23:26;;;;;;;7.25;1.38;;;6.80;99.90;;;;;;5041672;28;20124;-61
2024/01/04 01:25:52;;;;;;;2.58;0.52;;;6.70;99.90;;;;;;5025314;28;20032;-61
2024/01/04 01:28:17;;;;;;;6.15;0.70;;;6.70;99.90;;;;;;5039840;28;20051;-61
2024/01/04 01:30:43;;;;;;;4.95;0.98;;;6.80;99.90;;;;;;5041117;28;20040;-61
2024/01/04 01:33:09;;;;;;;3.85;0.60;;;6.80;99.90;;;;;;5044520;28;20045;-61
2024/01/04 01:35:35;;;;;;;6.57;0.90;;;6.70;99.90;;;;;;5046805;28;20481;-62
2024/01/04 01:38:00;;;;;;;4.32;0.93;;;6.80;99.90;;;;;;5037722;28;20127;-61
2024/01/04 01:40:26;;;;;;;5.40;0.60;;;6.80;99.90;;;;;;5044558;28;20055;-61
2024/01/04 01:42:52;;;;;;;4.60;1.15;;;6.80;99.90;;;;;;5039803;28;20129;-61
2024/01/04 01:45:20;;;;;;;3.80;0.60;;;6.80;99.90;;;;;;5045804;28;20044;-61
2024/01/04 01:47:47;;;;;;;5.60;0.60;;;6.80;99.90;;;;;;5043019;28;20052;-61
2024/01/04 01:50:13;;;;;;;3.15;0.80;;;6.70;99.90;;;;;;5046329;28;20036;-61
2024/01/04 01:52:40;;;;;;;3.97;0.80;;;6.70;99.90;;;;;;5045193;28;20421;-61
2024/01/04 01:55:09;;;;;;;5.80;0.80;;;6.70;99.90;;;;;;5046106;28;20106;-61
2024/01/04 01:57:35;;;;;;;3.58;0.50;;;6.70;99.90;;;;;;5057530;28;20227;-61
2024/01/04 02:00:01;;;;;;;1.95;0.57;;;6.70;99.90;;;;;;5043995;28;20287;-61
2024/01/04 02:02:27;;;;;;;3.35;0.70;;;6.70;99.90;;;;;;5046755;28;20036;-61
2024/01/04 02:04:53;;;;;;;3.50;0.80;;;6.70;99.90;;;;;;5057839;28;20097;-61
2024/01/04 02:07:19;;;;;;;3.75;0.80;;;6.70;99.90;;;;;;5046834;28;20033;-61
2024/01/04 02:09:45;;;;;;;3.40;0.70;;;6.70;99.90;;;;;;5036831;28;20040;-61
2024/01/04 02:12:15;;;;;;;3.20;0.75;;;6.70;99.90;;;;;;5041078;28;20048;-61
2024/01/04 02:14:41;;;;;;;6.97;0.80;;;6.60;99.90;;;;;;5044263;28;20037;-61
2024/01/04 02:17:07;;;;;;;3.38;0.50;;;6.60;99.90;;;;;;5028005;28;20068;-61
2024/01/04 02:19:33;;;;;;;4.38;1.13;;;6.60;99.90;;;;;;5043317;28;20409;-61
2024/01/04 02:21:59;;;;;;;3.38;0.80;;;6.60;99.90;;;;;;5040720;28;20283;-61
2024/01/04 02:24:26;;;;;;;5.80;0.93;;;6.60;99.90;;;;;;5026857;28;20719;-61
2024/01/04 02:26:52;;;;;;;7.20;0.85;;;6.60;99.90;;;;;;5041705;28;20086;-61
2024/01/04 02:29:18;;;;;;;2.90;0.70;;;6.50;99.90;;;;;;5018155;28;20096;-61
2024/01/04 02:31:45;;;;;;;4.13;0.82;;;6.40;99.90;;;;;;5040681;28;20504;-61
2024/01/04 02:34:10;;;;;;;3.90;0.80;;;6.30;99.90;;;;;;5042801;28;20128;-61
2024/01/04 02:36:36;;;;;;;3.42;1.00;;;6.30;99.90;;;;;;5045595;28;20120;-61
2024/01/04 02:39:02;;;;;;;2.45;0.68;;;6.30;99.90;;;;;;5032496;28;20145;-61
2024/01/04 02:41:28;;;;;;;3.92;0.70;;;6.20;99.90;;;;;;5044784;28;20560;-61
2024/01/04 02:43:54;;;;;;;4.07;0.80;;;6.20;99.90;;;;;;5040824;28;20130;-61
2024/01/04 02:46:19;;;;;;;3.22;0.88;;;6.20;99.90;;;;;;5043444;28;20033;-61
2024/01/04 02:48:45;;;;;;;4.22;0.60;;;6.20;99.90;;;;;;5045071;28;20545;-61
2024/01/04 02:51:11;;;;;;;3.40;0.82;;;6.20;99.90;;;;;;5044324;28;20041;-61
2024/01/04 02:53:36;;;;;;;2.85;0.77;;;6.20;99.90;;;;;;5042980;28;20099;-61
2024/01/04 02:56:04;;;;;;;9.27;1.13;;;6.20;99.90;;;;;;5048995;28;20032;-61
2024/01/04 02:58:30;;;;;;;4.28;0.60;;;6.20;99.90;;;;;;5028318;28;20048;-61
2024/01/04 03:00:56;;;;;;;6.10;0.82;;;6.10;99.90;;;;;;5035716;28;20045;-61
2024/01/04 03:03:21;;;;;;;4.60;0.68;;;6.10;99.90;;;;;;5043529;28;20045;-61
2024/01/04 03:05:47;;;;;;;1.52;0.45;;;6.00;99.90;;;;;;5059082;28;20048;-61
2024/01/04 03:08:14;;;;;;;6.75;1.13;;;6.00;99.90;;;;;;5046121;28;20044;-61
2024/01/04 03:10:40;;;;;;;5.60;1.25;;;6.00;99.90;;;;;;5026179;28;20502;-61
2024/01/04 03:13:08;;;;;;;1.92;0.57;;;5.90;99.90;;;;;;5040866;28;20080;-61
2024/01/04 03:15:34;;;;;;;4.28;0.77;;;5.90;99.90;;;;;;5045887;28;20060;-61
2024/01/04 03:18:00;;;;;;;5.57;0.85;;;5.90;99.90;;;;;;5037895;28;20496;-61
2024/01/04 03:20:25;;;;;;;2.33;0.70;;;5.90;99.90;;;;;;5044658;28;20044;-61
2024/01/04 03:22:51;;;;;;;3.05;0.68;;;5.90;99.90;;;;;;5041425;28;20525;-61
2024/01/04 03:25:17;;;;;;;6.65;0.70;;;5.90;99.90;;;;;;5053030;28;20120;-61
2024/01/04 03:27:43;;;;;;;4.60;0.77;;;6.00;99.90;;;;;;5045866;28;20041;-61
2024/01/04 03:30:10;;;;;;;3.50;0.63;;;6.00;99.90;;;;;;5043102;28;20123;-61
2024/01/04 03:32:36;;;;;;;4.55;0.90;;;6.00;99.90;;;;;;5043991;28;20041;-61
2024/01/04 03:35:04;;;;;;;4.90;0.80;;;5.90;99.90;;;;;;5041828;28;20040;-61
2024/01/04 03:37:30;;;;;;;7.93;1.10;;;5.90;99.90;;;;;;5043583;28;20045;-61
2024/01/04 03:39:56;;;;;;;3.95;0.60;;;5.90;99.90;;;;;;5055974;28;20052;-61
2024/01/04 03:42:22;;;;;;;2.72;0.70;;;5.90;99.90;;;;;;5014143;28;20029;-61
2024/01/04 03:44:47;;;;;;;4.78;1.10;;;5.80;99.90;;;;;;5041291;28;20104;-61
2024/01/04 03:47:13;;;;;;;2.28;1.10;;;5.80;99.90;;;;;;5038051;28;20132;-61
2024/01/04 03:49:39;;;;;;;1.75;0.50;;;5.90;99.90;;;;;;5050235;28;20428;-61
2024/01/04 03:52:04;;;;;;;6.35;1.10;;;5.80;99.90;;;;;;5040925;28;20036;-61
2024/01/04 03:54:30;;;;;;;2.55;1.10;;;5.80;99.90;;;;;;5026147;28;20033;-61
2024/01/04 03:56:56;;;;;;;3.85;0.80;;;5.80;99.90;;;;;;5043067;28;20033;-61
2024/01/04 03:59:22;;;;;;;4.05;0.90;;;5.80;99.90;;;;;;5010251;28;20283;-61
2024/01/04 04:01:48;;;;;;;4.00;1.00;;;5.80;99.90;;;;;;5043422;28;20489;-61
2024/01/04 04:04:14;;;;;;;5.47;1.10;;;5.90;99.90;;;;;;5027357;28;20290;-61
2024/01/04 04:06:40;;;;;;;4.68;0.88;;;5.90;99.90;;;;;;5043696;28;20132;-61
2024/01/04 04:09:07;;;;;;;6.47;1.10;;;5.80;99.90;;;;;;5039090;28;20272;-61
2024/01/04 04:11:33;;;;;;;3.17;0.70;;;5.80;99.90;;;;;;5039984;28;20040;-61
2024/01/04 04:13:59;;;;;;;8.63;0.88;;;5.80;99.90;;;;;;5057529;28;20521;-61
2024/01/04 04:16:25;;;;;;;4.13;0.85;;;5.80;99.90;;;;;;5050877;28;20182;-61
2024/01/04 04:18:51;;;;;;;6.60;0.77;;;5.70;99.90;;;;;;5051751;28;20033;-61
2024/01/04 04:21:23;;;;;;;3.83;1.13;;;5.70;99.90;;;;;;5026206;28;20400;-61
2024/01/04 04:23:50;;;;;;;4.50;0.77;;;5.70;99.90;;;;;;5057382;28;20406;-61
2024/01/04 04:26:20;;;;;;;6.57;0.90;;;5.70;99.90;;;;;;5031524;28;20041;-61
2024/01/04 04:28:49;;;;;;;4.55;0.90;;;5.70;99.90;;;;;;5046781;28;20072;-61
2024/01/04 04:31:17;;;;;;;6.82;1.15;;;5.70;99.90;;;;;;5046819;28;20033;-61
2024/01/04 04:33:44;;;;;;;4.70;1.27;;;5.70;99.90;;;;;;5046056;28;20923;-61
2024/01/04 04:36:11;;;;;;;3.00;1.10;;;5.70;99.90;;;;;;5048320;28;20470;-61
2024/01/04 04:38:37;;;;;;;3.63;1.00;;;5.70;99.90;;;;;;5046297;28;20460;-61
2024/01/04 04:41:07;;;;;;;5.07;1.75;;;5.70;99.90;;;;;;5043136;28;20075;-61
2024/01/04 04:43:33;;;;;;;2.78;0.65;;;5.70;99.90;;;;;;5041537;28;20037;-61
2024/01/04 04:46:01;;;;;;;3.92;0.85;;;5.70;99.90;;;;;;5046012;28;20056;-61
2024/01/04 04:48:27;;;;;;;3.60;1.60;;;5.70;99.90;;;;;;5044229;28;20029;-61
2024/01/04 04:50:53;;;;;;;5.57;1.20;;;5.70;99.90;;;;;;5031308;28;20567;-61
2024/01/04 04:53:20;;;;;;;2.97;1.00;;;5.70;99.90;;;;;;5059251;28;20558;-61
2024/01/04 04:55:46;;;;;;;3.10;0.75;;;5.70;99.90;;;;;;5029493;28;20048;-61
2024/01/04 04:58:11;;;;;;;8.13;1.30;;;5.70;99.90;;;;;;5040977;28;20050;-61
2024/01/04 05:00:37;;;;;;;2.25;1.08;;;5.80;99.90;;;;;;5047055;28;20045;-61
2024/01/04 05:03:03;;;;;;;4.65;1.27;;;5.60;99.90;;;;;;5013022;28;20041;-61
2024/01/04 05:05:29;;;;;;;4.80;1.10;;;5.70;99.90;;;;;;5027737;28;20541;-61
2024/01/04 05:07:55;;;;;;;3.67;0.75;;;5.70;99.90;;;;;;5045235;28;20037;-61
2024/01/04 05:10:21;;;;;;;2.42;0.80;;;5.70;99.90;;;;;;5032675;28;20136;-61
2024/01/04 05:12:48;;;;;;;6.05;0.90;;;5.70;99.90;;;;;;5047103;28;20481;-61
2024/01/04 05:15:14;;;;;;;7.68;1.95;;;5.80;99.90;;;;;;5045199;28;20361;-61
2024/01/04 05:17:39;;;;;;;5.05;0.98;;;5.70;99.90;;;;;;5055728;28;20044;-61
2024/01/04 05:20:06;;;;;;;4.55;0.80;;;5.70;99.90;;;;;;5043262;28;20044;-60
2024/01/04 05:22:31;;;;;;;3.97;0.80;;;5.60;99.90;;;;;;5047286;28;20547;-61
2024/01/04 05:24:57;;;;;;;12.15;1.63;;;5.70;99.90;;;;;;5026049;28;20049;-61
2024/01/04 05:27:23;;;;;;;5.38;0.90;;;5.60;99.90;;;;;;5030610;28;20048;-61
2024/01/04 05:29:49;;;;;;;4.63;0.80;;;5.60;99.90;;;;;;5044057;28;20454;-60
2024/01/04 05:32:15;;;;;;;3.97;0.73;;;5.60;99.90;;;;;;5059853;28;20124;-60
2024/01/04 05:34:44;;;;;;;3.67;1.00;;;5.70;99.90;;;;;;5043902;28;20033;-61
2024/01/04 05:37:09;;;;;;;5.28;0.88;;;5.70;99.90;;;;;;5048791;28;20065;-61
2024/01/04 05:39:35;;;;;;;3.00;1.10;;;5.70;99.90;;;;;;5043451;28;20409;-61
2024/01/04 05:42:01;;;;;;;3.28;0.90;;;5.60;99.90;;;;;;5039576;28;20110;-61
2024/01/04 05:44:27;;;;;;;5.78;0.77;;;5.70;99.90;;;;;;5044159;28;20037;-61
2024/01/04 05:46:53;;;;;;;5.00;0.82;;;5.70;99.90;;;;;;5044390;28;20033;-61
2024/01/04 05:49:19;;;;;;;4.35;0.65;;;5.60;99.90;;;;;;5054643;28;20052;-61
2024/01/04 05:51:45;;;;;;;1.85;0.52;;;5.60;99.90;;;;;;5060567;28;20040;-61
2024/01/04 05:54:10;;;;;;;6.90;1.13;;;5.60;99.90;;;;;;5058269;28;20068;-60
2024/01/04 05:56:36;;;;;;;5.35;1.58;;;5.60;99.90;;;;;;5043892;28;20459;-60
2024/01/04 05:59:02;;;;;;;7.18;1.35;;;5.60;99.90;;;;;;5042330;28;20075;-60
2024/01/04 06:01:28;;;;;;;3.08;0.88;;;5.60;99.90;;;;;;5048559;28;20045;-61
2024/01/04 06:03:54;;;;;;;4.55;0.77;;;5.60;99.90;;;;;;5030267;28;20571;-61
2024/01/04 06:06:20;;;;;;;5.70;0.80;;;5.60;99.90;;;;;;5043042;28;20048;-61
2024/01/04 06:08:45;;;;;;;4.78;1.45;;;5.60;99.90;;;;;;5055951;28;20041;-61
2024/01/04 06:11:11;;;;;;;2.92;0.80;;;5.60;99.90;;;;;;5040317;28;20102;-61
2024/01/04 06:13:37;;;;;;;3.95;0.90;;;5.50;99.90;;;;;;5041407;28;20040;-61
2024/01/04 06:16:09;;;;;;;5.10;0.90;;;5.60;99.90;;;;;;5037940;28;20121;-61
2024/01/04 06:18:35;;;;;;;3.80;0.82;;;5.60;99.90;;;;;;5043282;28;20406;-61
2024/01/04 06:21:02;;;;;;;4.88;0.80;;;5.50;99.90;;;;;;5046840;28;20105;-61
2024/01/04 06:23:29;;;;;;;5.15;0.88;;;5.50;99.90;;;;;;5047224;28;20252;-61
2024/01/04 06:25:55;;;;;;;3.65;0.85;;;5.50;99.90;;;;;;5058813;28;20269;-61
2024/01/04 06:28:21;;;;;;;1.48;0.60;;;5.50;99.90;;;;;;5040192;28;20048;-61
2024/01/04 06:30:47;;;;;;;4.45;0.82;;;5.50;99.90;;;;;;5018899;28;20044;-61
2024/01/04 06:33:13;;;;;;;5.90;0.80;;;5.50;99.90;;;;;;5054280;28;20512;-61
2024/01/04 06:35:39;;;;;;;3.42;0.77;;;5.50;99.90;;;;;;5047420;28;20244;-61
2024/01/04 06:38:08;;;;;;;9.57;2.28;;;5.50;99.90;;;;;;5045402;28;20478;-61
2024/01/04 06:40:37;;;;;;;3.60;1.35;;;5.50;99.90;;;;;;5047165;28;20410;-61
2024/01/04 06:43:08;;;;;;;5.03;1.40;;;5.50;99.90;;;;;;5044286;28;20529;-61
2024/01/04 06:45:38;;;;;;;3.42;1.00;;;5.50;99.90;;;;;;5041529;28;20060;-61
2024/01/04 06:48:04;;;;;;;2.75;0.90;;;5.50;99.90;;;;;;5043862;28;20462;-61
2024/01/04 06:50:30;;;;;;;3.85;0.70;;;5.40;99.90;;;;;;5042172;28;20123;-61
2024/01/04 06:52:56;;;;;;;5.82;1.30;;;5.40;99.90;;;;;;5028244;28;20127;-61
2024/01/04 06:55:23;;;;;;;3.95;1.10;;;5.40;99.90;;;;;;5044208;28;20049;-60
2024/01/04 06:57:49;;;;;;;3.10;1.00;;;5.40;99.90;;;;;;5042427;28;20041;-60
2024/01/04 07:00:17;;;;;;;5.93;1.27;;;5.40;99.90;;;;;;5042251;28;20037;-61
2024/01/04 07:02:43;;;;;;;4.70;1.05;;;5.40;99.90;;;;;;5042352;28;20588;-61
2024/01/04 07:05:12;;;;;;;8.43;1.02;;;5.40;99.90;;;;;;5057918;28;20119;-60
2024/01/04 07:07:38;;;;;;;5.43;1.00;;;5.40;99.90;;;;;;5038501;28;20083;-61
2024/01/04 07:10:04;;;;;;;2.47;0.65;;;5.40;99.90;;;;;;5026441;28;20098;-61
2024/01/04 07:12:30;;;;;;;4.18;1.17;;;5.40;99.90;;;;;;5043611;28;20041;-61
2024/01/04 07:14:55;;;;;;;5.10;0.82;;;5.40;99.90;;;;;;5038601;28;20555;-60
2024/01/04 07:17:22;;;;;;;3.63;1.33;;;5.40;99.90;;;;;;5045256;28;20045;-60
2024/01/04 07:19:48;;;;;;;3.95;1.00;;;5.40;99.90;;;;;;5043913;28;20036;-60
2024/01/04 07:22:15;;;;;;;2.42;0.80;;;5.40;99.90;;;;;;5040317;28;20110;-61
2024/01/04 07:24:41;;;;;;;3.42;1.00;;;5.30;99.90;;;;;;5045770;28;20032;-60
2024/01/04 07:27:09;;;;;;;6.88;1.92;;;5.30;99.90;;;;;;5042088;28;20060;-60
2024/01/04 07:29:35;;;;;;;4.38;0.82;;;5.30;99.90;;;;;;5022442;28;20131;-61
2024/01/04 07:32:00;;;;;;;4.53;1.05;;;5.30;99.90;;;;;;5057573;28;20451;-61
2024/01/04 07:34:27;;;;;;;5.30;0.77;;;5.30;99.90;;;;;;5022384;28;20410;-60
2024/01/04 07:36:53;;;;;;;4.20;0.70;;;5.30;99.90;;;;;;5035330;28;20045;-60
2024/01/04 07:39:19;;;;;;;3.55;0.80;;;5.20;99.90;;;;;;5017148;28;20557;-60
2024/01/04 07:41:45;;;;;;;6.43;1.40;;;5.30;99.90;;;;;;5038013;28;20110;-60
2024/01/04 07:44:11;;;;;;;4.50;0.68;;;5.20;99.90;;;;;;5025066;28;20041;-60
2024/01/04 07:46:37;;;;;;;2.72;0.93;;;5.20;99.90;;;;;;5047909;28;20097;-60
2024/01/04 07:49:10;;;;;;;5.57;1.40;;;5.20;99.90;;;;;;5042309;28;20048;-60
2024/01/04 07:51:37;;;;;;;5.05;1.70;;;5.20;99.90;;;;;;5041412;28;20490;-60
2024/01/04 07:54:02;;;;;;;6.00;1.30;;;5.20;99.90;;;;;;5033462;28;20041;-60
2024/01/04 07:56:28;;;;;;;5.65;1.60;;;5.10;99.90;;;;;;5046642;28;20037;-61
2024/01/04 07:58:54;;;;;;;4.32;1.80;;;5.10;99.90;;;;;;5033367;28;20045;-60
2024/01/04 08:01:19;;;;;;;3.88;1.20;;;5.10;99.90;;;;;;5047167;28;20029;-61
2024/01/04 08:03:45;;;;;;;5.22;1.20;;;5.10;99.90;;;;;;5046771;28;20041;-59
2024/01/04 08:06:11;;;;;;;4.20;1.58;;;5.00;99.90;;;;;;5031973;28;20052;-60
2024/01/04 08:08:36;;;;;;;3.60;0.93;;;5.00;99.90;;;;;;5044917;28;20069;-60
2024/01/04 08:11:02;;;;;;;4.18;1.10;;;5.00;99.90;;;;;;5030238;28;20573;-60
2024/01/04 08:13:28;;;;;;;2.72;1.13;;;5.00;99.90;;;;;;5065354;28;20412;-60
2024/01/04 08:15:55;;;;;;;5.72;2.35;;;5.10;99.90;;;;;;5047174;28;20040;-61
2024/01/04 08:18:21;;;;;;;4.20;1.00;;;5.00;99.90;;;;;;5059101;28;20107;-60
2024/01/04 08:20:49;;;;;;;4.40;1.60;;;5.10;99.90;;;;;;5049251;28;20237;-61
2024/01/04 08:23:15;;;;;;;5.82;1.83;;;5.10;99.90;;;;;;5047022;28;20036;-60
2024/01/04 08:25:41;;;;;;;7.10;1.60;;;5.10;99.90;;;;;;5048693;28;20410;-60
2024/01/04 08:28:10;;;;;;;3.35;1.45;;;5.10;99.90;;;;;;5044644;28;20048;-61
2024/01/04 08:30:37;;;;;;;4.05;1.17;;;5.10;99.90;;;;;;5051868;28;20044;-61
2024/01/04 08:33:03;;;;;;;9.27;2.42;;;5.10;99.90;;;;;;5047115;28;20490;-61
2024/01/04 08:35:28;;;;;;;10.43;1.85;;;5.20;99.90;;;;;;5046751;28;20132;-60
2024/01/04 08:37:54;;;;;;;5.20;2.10;;;5.20;99.90;;;;;;5047856;28;20503;-61
2024/01/04 08:40:20;;;;;;;8.00;1.60;;;5.20;99.90;;;;;;5046334;28;20585;-60
2024/01/04 08:42:46;;;;;;;5.68;1.48;;;5.20;99.90;;;;;;5028269;28;20422;-60
2024/01/04 08:45:11;;;;;;;3.80;1.15;;;5.20;99.90;;;;;;5042373;28;20032;-60
2024/01/04 08:47:37;;;;;;;4.35;1.75;;;5.20;99.90;;;;;;5042277;28;20033;-62
2024/01/04 08:50:04;;;;;;;5.38;1.88;;;5.30;99.90;;;;;;5048608;28;20123;-61
2024/01/04 08:52:30;;;;;;;6.13;1.75;;;5.30;99.90;;;;;;5029892;28;20037;-60
2024/01/04 08:54:56;;;;;;;6.03;1.70;;;5.30;99.90;;;;;;5047798;28;20336;-60
2024/01/04 08:57:23;;;;;;;5.50;1.70;;;5.40;99.90;;;;;;5043119;28;20074;-62
2024/01/04 08:59:49;;;;;;;7.68;1.63;;;5.40;99.90;;;;;;5061831;28;20045;-60
2024/01/04 09:02:15;;;;;;;6.78;1.63;;;5.40;99.90;;;;;;5029206;28;20037;-62
2024/01/04 09:04:40;;;;;;;8.25;2.58;;;5.40;99.90;;;;;;5046929;28;20103;-62
2024/01/04 09:07:09;;;;;;;4.53;1.58;;;5.40;99.90;;;;;;5047800;28;20053;-61
2024/01/04 09:09:36;;;;;;;5.35;1.45;;;5.40;99.90;;;;;;5044370;28;20048;-62
2024/01/04 09:12:01;;;;;;;3.90;1.50;;;5.40;99.90;;;;;;5042524;28;20115;-60
2024/01/04 09:14:28;;;;;;;5.63;1.80;;;5.40;99.90;;;;;;5045369;28;20745;-62
2024/01/04 09:16:53;;;;;;;2.75;1.17;;;5.40;99.90;;;;;;5047119;28;20040;-62
2024/01/04 09:19:20;;;;;;;6.93;1.98;;;5.40;99.90;;;;;;5061877;28;20068;-63
2024/01/04 09:21:50;;;;;;;5.72;1.45;;;5.40;99.90;;;;;;5045998;28;20707;-62
2024/01/04 09:24:20;;;;;;;3.90;1.40;;;5.40;99.90;;;;;;5028586;28;20033;-62
2024/01/04 09:26:46;;;;;;;6.95;1.52;;;5.50;99.90;;;;;;5045785;28;20094;-62
2024/01/04 09:29:13;;;;;;;6.47;1.55;;;5.50;99.90;;;;;;5029947;28;20044;-62
2024/01/04 09:31:40;;;;;;;6.95;1.52;;;5.60;99.90;;;;;;5044404;28;20115;-62
2024/01/04 09:34:06;;;;;;;6.45;1.90;;;5.60;99.90;;;;;;5047366;28;20041;-62
2024/01/04 09:36:32;;;;;;;8.93;1.83;;;5.70;99.90;;;;;;5030307;28;20131;-62
2024/01/04 09:38:58;;;;;;;5.82;1.80;;;5.70;99.90;;;;;;5027572;28;20524;-62
2024/01/04 09:41:31;;;;;;;4.07;1.30;;;5.80;99.90;;;;;;5053292;28;20045;-62
2024/01/04 09:44:03;;;;;;;5.65;1.50;;;5.80;99.90;;;;;;5043582;28;20045;-61
2024/01/04 09:46:39;;;;;;;3.85;1.50;;;5.80;99.90;;;;;;5043151;28;20045;-61
2024/01/04 09:49:07;;;;;;;7.10;1.40;;;5.80;99.90;;;;;;5058845;28;20501;-61
2024/01/04 09:51:42;;;;;;;8.57;1.63;;;5.90;99.90;;;;;;5022147;28;20036;-61
2024/01/04 09:54:11;;;;;;;3.35;1.20;;;5.90;99.90;;;;;;5043860;28;20053;-62
2024/01/04 09:56:42;;;;;;;5.03;1.27;;;5.90;99.90;;;;;;5044060;28;20025;-61
2024/01/04 09:59:08;;;;;;;4.53;1.30;;;5.90;99.90;;;;;;5046441;28;20051;-60
2024/01/04 10:01:36;;;;;;;5.78;1.50;;;5.90;99.90;;;;;;5043551;28;20120;-62
2024/01/04 10:04:11;;;;;;;4.65;1.05;;;5.90;99.90;;;;;;5045223;28;20099;-62
2024/01/04 10:06:38;;;;;;;7.18;1.30;;;5.90;99.90;;;;;;5044284;28;20044;-62
2024/01/04 10:09:14;;;;;;;4.25;1.17;;;6.00;99.90;;;;;;5021385;28;20434;-62
2024/01/04 10:11:50;;;;;;;4.30;1.20;;;6.00;99.90;;;;;;5043380;28;20044;-62
2024/01/04 10:14:16;;;;;;;3.75;1.50;;;6.00;99.90;;;;;;5040791;28;20067;-62
2024/01/04 10:16:42;;;;;;;5.50;1.02;;;6.00;99.90;;;;;;5031261;28;20037;-60
2024/01/04 10:19:09;;;;;;;2.03;0.90;;;6.10;99.90;;;;;;5021951;28;20489;-62
2024/01/04 10:21:34;;;;;;;4.93;1.10;;;6.10;99.90;;;;;;5045660;28;20036;-62
2024/01/04 10:24:02;;;;;;;5.90;1.80;;;6.10;99.90;;;;;;5045904;28;20552;-62
2024/01/04 10:26:28;;;;;;;4.57;1.40;;;6.10;99.90;;;;;;5043467;28;20121;-62
2024/01/04 10:28:55;;;;;;;3.78;1.23;;;6.10;99.90;;;;;;5057944;28;20047;-62
2024/01/04 10:31:20;;;;;;;6.45;1.42;;;6.10;99.90;;;;;;5027105;28;20041;-61
2024/01/04 10:33:46;;;;;;;5.60;1.30;;;6.20;99.90;;;;;;5027775;28;20118;-62
2024/01/04 10:36:13;;;;;;;3.83;1.13;;;6.20;99.90;;;;;;5044289;28;20037;-62
2024/01/04 10:38:39;;;;;;;1.48;0.68;;;6.10;99.90;;;;;;5025630;28;20513;-60
2024/01/04 10:41:04;;;;;;;5.07;1.20;;;6.10;99.90;;;;;;5045695;28;20116;-60
2024/01/04 10:43:34;;;;;;;8.50;1.33;;;6.10;99.90;;;;;;5056962;28;20076;-60
2024/01/04 10:46:08;;;;;;;4.72;1.02;;;6.10;99.90;;;;;;5045093;28;20064;-62
2024/01/04 10:48:34;;;;;;;;;;;6.10;99.90;;;;;;5039816;28;20044;-62
2024/01/04 10:51:04;;;;;;;1.65;0.70;;;6.10;99.90;;;;;;5057849;28;19916;-61
2024/01/04 10:53:37;;;;;;;8.45;1.40;;;6.00;99.90;;;;;;5039400;28;20041;-62
2024/01/04 10:56:04;;;;;;;4.53;0.70;;;6.10;99.90;;;;;;5056376;28;20472;-61
2024/01/04 10:58:38;;;;;;;2.83;0.80;;;6.10;99.90;;;;;;5055744;28;20641;-61
2024/01/04 11:01:04;;;;;;;2.47;0.73;;;6.10;99.90;;;;;;5024556;28;20493;-61
2024/01/04 11:03:31;;;;;;;3.83;1.10;;;6.10;99.90;;;;;;5059170;28;20083;-60
2024/01/04 11:06:00;;;;;;;4.00;0.90;;;6.10;99.90;;;;;;5058823;28;20032;-60
2024/01/04 11:08:32;;;;;;;6.40;1.13;;;6.10;99.90;;;;;;5024738;28;20041;-62
2024/01/04 11:11:00;;;;;;;6.50;1.00;;;6.10;99.90;;;;;;5056647;28;20052;-62
2024/01/04 11:13:26;;;;;;;5.78;1.50;;;6.10;99.90;;;;;;5042118;28;20091;-62
2024/01/04 11:15:54;;;;;;;6.75;1.38;;;6.10;99.90;;;;;;5043955;28;20545;-62
2024/01/04 11:18:40;;;;;;;6.07;1.48;;;6.20;99.90;;;;;;5020320;28;20059;-62
2024/01/04 11:21:08;;;;;;;6.28;1.10;;;6.10;99.90;;;;;;5037656;28;20425;-62
2024/01/04 11:24:02;;;;;;;4.40;1.27;;;6.20;99.90;;;;;;5041733;28;20135;-62
2024/01/04 11:26:49;;;;;;;5.78;1.63;;;6.20;99.90;;;;;;5033961;28;20457;-62
2024/01/04 11:29:15;;;;;;;4.93;1.33;;;6.10;99.90;;;;;;5062239;22;20047;-59
2024/01/04 11:31:45;;;;;;;4.93;1.35;;;6.20;99.90;;;;;;5046746;28;20076;-61
2024/01/04 11:34:13;;;;;;;3.88;0.90;;;6.20;99.90;;;;;;5044715;28;20044;-60
2024/01/04 11:36:39;;;;;;;8.98;1.25;;;6.30;99.90;;;;;;5045398;28;20036;-60
2024/01/04 11:39:05;;;;;;;3.78;1.00;;;6.30;99.90;;;;;;5045344;28;20052;-61
2024/01/04 11:41:40;;;;;;;4.13;1.10;;;6.30;99.90;;;;;;5046897;28;20043;-60
2024/01/04 11:44:16;;;;;;;4.95;1.00;;;6.30;99.90;;;;;;5063093;28;20489;-60
2024/01/04 11:46:43;;;;;;;21.02;10.88;;;6.40;99.90;;;;;;5049089;28;20055;-61
2024/01/04 11:49:11;;;;;;;9.55;3.75;;;6.40;99.90;;;;;;5065700;28;20118;-62
2024/01/04 11:51:46;;;;;;;4.65;1.90;;;6.40;99.90;;;;;;5046875;28;20037;-61
2024/01/04 11:54:14;;;;;;;3.03;1.00;;;6.30;99.90;;;;;;5032632;28;20072;-62
2024/01/04 11:56:40;;;;;;;2.97;1.08;;;6.40;99.90;;;;;;5046296;28;20496;-61
2024/01/04 11:59:15;;;;;;;3.13;0.80;;;6.40;99.90;;;;;;5031550;28;20044;-62
2024/01/04 12:01:43;;;;;;;2.45;0.82;;;6.40;99.90;;;;;;5049017;28;20037;-61
2024/01/04 12:04:14;;;;;;;2.58;0.80;;;6.40;99.90;;;;;;5046421;28;20123;-61
2024/01/04 12:06:41;;;;;;;7.88;2.58;;;6.40;99.90;;;;;;5046358;28;20193;-62
2024/01/04 12:09:09;;;;;;;4.47;1.42;;;6.40;99.90;;;;;;5050308;28;20056;-61
2024/01/04 12:11:39;;;;;;;3.25;1.33;;;6.40;99.90;;;;;;5045566;28;20560;-61
2024/01/04 12:14:06;;;;;;;2.05;0.88;;;6.40;99.90;;;;;;5047528;28;20045;-61
2024/01/04 12:16:32;;;;;;;5.15;1.50;;;6.40;99.90;;;;;;5042491;28;20523;-61
2024/01/04 12:19:00;;;;;;;5.35;1.10;;;6.50;99.90;;;;;;5047479;28;20045;-61
2024/01/04 12:21:26;;;;;;;3.58;1.05;;;6.50;99.90;;;;;;5043979;28;20166;-61
2024/01/04 12:23:52;;;;;;;1.77;0.90;;;6.40;99.90;;;;;;5048229;28;20766;-61
2024/01/04 12:26:23;;;;;;;5.65;1.35;;;6.50;99.90;;;;;;5045513;28;20048;-62
2024/01/04 12:28:51;;;;;;;3.08;1.05;;;6.50;99.90;;;;;;5060902;28;20044;-60
2024/01/04 12:31:17;;;;;;;2.65;1.10;;;6.50;99.90;;;;;;5028117;28;20577;-62
2024/01/04 12:33:44;;;;;;;8.00;1.50;;;6.40;99.90;;;;;;5046734;28;20082;-61
2024/01/04 12:36:10;;;;;;;4.85;1.63;;;6.50;99.90;;;;;;5048489;28;20126;-61
2024/01/04 12:38:35;;;;;;;4.80;1.10;;;6.50;99.90;;;;;;5045906;28;20519;-61
2024/01/04 12:41:01;;;;;;;4.90;1.20;;;6.60;99.90;;;;;;5051742;28;20104;-62
2024/01/04 12:43:27;;;;;;;2.05;1.00;;;6.60;99.90;;;;;;5071907;28;20032;-61
2024/01/04 12:46:08;;;;;;;2.17;0.85;;;6.50;99.90;;;;;;5065934;28;20143;-62
2024/01/04 12:48:34;;;;;;;4.47;1.10;;;6.50;99.90;;;;;;5033543;28;20553;-62
2024/01/04 12:51:14;;;;;;;4.70;1.50;;;6.40;99.90;;;;;;5036288;28;20119;-61
2024/01/04 12:53:41;;;;;;;2.25;0.82;;;6.50;99.90;;;;;;5049213;28;20554;-61
2024/01/04 12:56:09;;;;;;;3.83;1.05;;;6.40;99.90;;;;;;5050958;28;20051;-61